Faison, North Carolina
Current Conditions -  °F | °C
As of 1:35 AM on Saturday 25 Oct 2014 (Local Time) from KDPL Reporting Station
Clear Clear  
Wind Chill: 43°   Ceiling: Unl
Heat Index: 43°   Visibility: 7mi
Dew Point: 43°   Wind: 0mph
Humidity: 99%   Direction: NA
Pressure: 29.99"   Gusts: NA
Location:  35.12°N, 78.14°W
Report Text: KDPL 250535Z AUTO 00000KT 7SM CLR 06/06 A2999 RMK AO2 T00620060
Loading
Personal Weather Stations






























Interactive Weather Map
Tropical Storm Tracking
New forecast layout! Learn more

10-Day Weather Forecast

Advertisements
Track Severe Weather on mobile